createdAt,value
2023-03-29T00:02:10.959Z,5.36
2023-03-29T00:05:13.212Z,5.39
2023-03-29T00:08:14.901Z,5.41
2023-03-29T00:11:17.275Z,5.45
2023-03-29T00:14:18.735Z,5.52
2023-03-29T00:17:20.298Z,5.49
2023-03-29T00:20:21.803Z,5.27
2023-03-29T00:23:23.336Z,5.40
2023-03-29T00:26:24.822Z,5.31
2023-03-29T00:29:26.317Z,5.34
2023-03-29T00:32:27.852Z,5.47
2023-03-29T00:35:29.384Z,5.40
2023-03-29T00:38:31.324Z,5.46
2023-03-29T00:41:32.788Z,5.45
2023-03-29T00:44:53.112Z,5.40
2023-03-29T00:47:57.115Z,5.42
2023-03-29T00:51:01.615Z,5.46
2023-03-29T00:54:04.045Z,5.43
2023-03-29T00:57:06.938Z,5.41
2023-03-29T01:00:10.187Z,5.47
2023-03-29T01:03:24.639Z,5.26
2023-03-29T01:06:26.797Z,5.32
2023-03-29T01:09:30.278Z,5.37
2023-03-29T01:12:35.801Z,5.26
2023-03-29T01:15:37.352Z,5.33
2023-03-29T01:18:39.718Z,5.19
2023-03-29T01:21:44.134Z,5.12
2023-03-29T01:24:56.614Z,5.64
2023-03-29T01:28:02.426Z,6.65
2023-03-29T01:31:09.148Z,6.96
2023-03-29T01:34:12.917Z,7.20
2023-03-29T01:37:42.865Z,6.97
2023-03-29T01:40:44.302Z,7.01
2023-03-29T01:44:21.368Z,6.92
2023-03-29T01:47:34.143Z,6.68
2023-03-29T01:50:35.513Z,6.36
2023-03-29T01:54:04.712Z,6.23
2023-03-29T01:57:06.904Z,6.01
2023-03-29T02:00:10.554Z,6.10
2023-03-29T02:03:14.797Z,6.05
2023-03-29T02:06:19.361Z,6.02
2023-03-29T02:09:20.990Z,6.13
2023-03-29T02:12:22.710Z,5.96
2023-03-29T02:15:24.410Z,6.02
2023-03-29T02:18:26.180Z,6.12
2023-03-29T02:21:35.639Z,5.91
2023-03-29T02:24:37.219Z,6.09
2023-03-29T02:27:38.853Z,6.05
2023-03-29T02:30:56.223Z,5.99
2023-03-29T02:34:01.303Z,5.98
2023-03-29T02:37:06.722Z,6.01
2023-03-29T02:40:10.944Z,5.87
2023-03-29T02:43:12.917Z,5.97
2023-03-29T02:46:14.637Z,5.93
2023-03-29T02:49:16.333Z,5.93
2023-03-29T02:52:25.754Z,5.98
2023-03-29T02:55:31.204Z,5.94
2023-03-29T02:58:32.794Z,6.00
2023-03-29T03:01:34.271Z,6.06
2023-03-29T03:04:35.843Z,6.07
2023-03-29T03:07:37.355Z,5.98
2023-03-29T03:10:39.252Z,6.11
2023-03-29T03:13:40.991Z,6.10
2023-03-29T03:16:43.018Z,6.15
2023-03-29T03:19:44.640Z,6.17
2023-03-29T03:22:48.873Z,6.02
2023-03-29T03:25:50.419Z,6.01
2023-03-29T03:28:51.859Z,6.00
2023-03-29T03:31:54.051Z,5.98
2023-03-29T03:34:55.951Z,5.99
2023-03-29T03:37:57.831Z,5.98
2023-03-29T03:40:59.562Z,5.92
2023-03-29T03:44:01.722Z,5.93
2023-03-29T03:47:04.748Z,5.72
2023-03-29T03:50:06.812Z,5.81
2023-03-29T03:53:08.318Z,5.75
2023-03-29T03:56:09.830Z,5.83
2023-03-29T03:59:11.341Z,5.69
2023-03-29T04:02:12.876Z,5.66
2023-03-29T04:05:14.751Z,5.78
2023-03-29T04:08:16.453Z,5.76
2023-03-29T04:11:17.911Z,5.81
2023-03-29T04:14:20.426Z,5.76
2023-03-29T04:17:21.832Z,5.82
2023-03-29T04:20:24.208Z,5.81
2023-03-29T04:23:25.671Z,5.72
2023-03-29T04:26:27.154Z,5.85
2023-03-29T04:29:28.612Z,5.81
2023-03-29T04:32:30.421Z,5.80
2023-03-29T04:35:32.345Z,5.75
2023-03-29T04:38:37.839Z,5.59
2023-03-29T04:41:39.319Z,5.75
2023-03-29T04:44:42.597Z,5.57
2023-03-29T04:47:45.319Z,5.64
2023-03-29T04:50:47.462Z,5.57
2023-03-29T04:53:50.158Z,5.67
2023-03-29T04:56:52.504Z,5.40
2023-03-29T04:59:53.986Z,5.52
2023-03-29T05:02:55.586Z,5.52
2023-03-29T05:09:08.936Z,5.49
2023-03-29T05:12:10.489Z,5.56
2023-03-29T05:15:12.114Z,5.50
2023-03-29T05:18:13.606Z,5.53
2023-03-29T05:21:15.611Z,5.56
2023-03-29T05:24:17.638Z,5.54
2023-03-29T05:27:20.980Z,5.57
2023-03-29T05:30:22.430Z,5.53
2023-03-29T05:33:24.416Z,5.46
2023-03-29T05:36:25.867Z,5.42
2023-03-29T05:39:27.334Z,5.42
2023-03-29T05:42:28.806Z,5.53
2023-03-29T05:45:30.442Z,5.62
2023-03-29T05:48:32.542Z,5.54
2023-03-29T05:51:35.368Z,5.57
2023-03-29T05:54:36.825Z,5.58
2023-03-29T05:57:38.466Z,5.66
2023-03-29T06:00:40.387Z,5.65
2023-03-29T06:03:42.267Z,5.75
2023-03-29T06:06:43.890Z,5.73
2023-03-29T06:09:45.639Z,5.71
2023-03-29T06:12:47.679Z,5.78
2023-03-29T06:15:49.187Z,5.68
2023-03-29T06:18:50.662Z,5.87
2023-03-29T06:21:54.891Z,5.98
2023-03-29T06:24:56.546Z,6.01
2023-03-29T06:27:58.030Z,5.95
2023-03-29T06:31:02.947Z,5.93
2023-03-29T06:34:05.306Z,5.98
2023-03-29T06:37:11.131Z,5.95
2023-03-29T06:40:14.941Z,6.07
2023-03-29T06:43:16.732Z,6.17
2023-03-29T06:46:21.483Z,6.21
2023-03-29T06:49:23.140Z,6.32
2023-03-29T06:52:24.644Z,6.39
2023-03-29T06:55:27.568Z,6.42
2023-03-29T06:58:29.053Z,6.47
2023-03-29T07:01:42.808Z,6.62
2023-03-29T07:04:44.502Z,6.71
2023-03-29T07:07:59.746Z,6.67
2023-03-29T07:11:04.211Z,6.81
2023-03-29T07:14:06.009Z,6.85
2023-03-29T07:17:09.320Z,7.00
2023-03-29T07:20:17.116Z,7.11
2023-03-29T07:23:18.671Z,7.22
2023-03-29T07:26:28.594Z,7.21
2023-03-29T07:29:35.137Z,7.11
2023-03-29T07:32:37.531Z,7.29
2023-03-29T07:35:40.069Z,7.52
2023-03-29T07:38:41.799Z,7.46
2023-03-29T07:41:44.515Z,7.69
2023-03-29T07:44:45.971Z,7.84
2023-03-29T07:47:48.963Z,7.82
2023-03-29T07:50:52.945Z,7.95
2023-03-29T07:54:00.567Z,7.98
2023-03-29T07:57:06.978Z,8.09
2023-03-29T08:00:19.668Z,8.08
2023-03-29T08:03:21.658Z,8.12
2023-03-29T08:06:23.187Z,8.17
2023-03-29T08:09:27.196Z,8.07
2023-03-29T08:12:31.962Z,8.25
2023-03-29T08:15:38.775Z,8.66
2023-03-29T08:18:46.007Z,8.84
2023-03-29T08:21:51.921Z,9.08
2023-03-29T08:24:57.481Z,9.30
2023-03-29T08:27:59.566Z,9.65
2023-03-29T08:31:01.326Z,9.87
2023-03-29T08:34:06.603Z,10.02
2023-03-29T08:37:10.159Z,10.15
2023-03-29T08:40:21.385Z,10.26
2023-03-29T08:43:26.002Z,10.80
2023-03-29T08:46:52.504Z,11.22
2023-03-29T08:49:55.132Z,11.04
2023-03-29T08:52:58.850Z,11.11
2023-03-29T08:56:01.733Z,11.12
2023-03-29T08:59:03.358Z,11.20
2023-03-29T09:02:04.997Z,11.37
2023-03-29T09:05:22.595Z,11.73
2023-03-29T09:08:24.667Z,12.01
2023-03-29T09:11:39.047Z,11.97
2023-03-29T09:14:43.475Z,12.26
2023-03-29T09:17:55.048Z,12.53
2023-03-29T09:21:16.429Z,12.68
2023-03-29T09:24:36.548Z,12.92
2023-03-29T09:28:04.523Z,12.99
2023-03-29T09:31:20.254Z,13.05
2023-03-29T09:34:23.859Z,13.17
2023-03-29T09:37:36.920Z,13.01
2023-03-29T09:40:42.826Z,12.74
2023-03-29T09:43:44.278Z,12.72
2023-03-29T09:46:49.220Z,12.66
2023-03-29T09:49:52.985Z,12.83
2023-03-29T09:52:54.538Z,12.76
2023-03-29T09:55:57.084Z,12.95
2023-03-29T09:58:59.978Z,13.12
2023-03-29T10:02:06.562Z,13.70
2023-03-29T10:05:09.238Z,13.97
2023-03-29T10:08:20.012Z,13.38
2023-03-29T10:11:32.845Z,13.43
2023-03-29T10:14:38.232Z,13.39
2023-03-29T10:17:40.236Z,13.31
2023-03-29T10:20:41.612Z,13.53
2023-03-29T10:23:43.851Z,13.43
2023-03-29T10:26:45.401Z,13.78
2023-03-29T10:29:47.140Z,13.76
2023-03-29T10:32:54.095Z,13.82
2023-03-29T10:35:56.483Z,13.80
2023-03-29T10:38:59.274Z,13.48
2023-03-29T10:42:01.092Z,13.58
2023-03-29T10:45:02.649Z,13.63
2023-03-29T10:48:04.929Z,13.57
2023-03-29T10:51:07.562Z,13.44
2023-03-29T10:54:09.784Z,13.58
2023-03-29T10:57:13.649Z,13.39
2023-03-29T11:00:25.557Z,13.43
2023-03-29T11:03:59.719Z,13.76
2023-03-29T11:07:21.366Z,13.65
2023-03-29T11:10:41.412Z,13.96
2023-03-29T11:14:04.341Z,14.35
2023-03-29T11:17:27.555Z,14.63
2023-03-29T11:20:37.222Z,15.12
2023-03-29T11:23:42.037Z,14.74
2023-03-29T11:27:13.077Z,14.83
2023-03-29T11:30:33.882Z,14.95
2023-03-29T11:33:47.474Z,15.01
2023-03-29T11:37:12.206Z,14.81
2023-03-29T11:40:15.241Z,14.86
2023-03-29T11:43:37.811Z,14.56
2023-03-29T11:46:42.524Z,14.73
2023-03-29T11:49:54.515Z,14.66
2023-03-29T11:52:58.586Z,14.74
2023-03-29T11:56:08.761Z,14.92
2023-03-29T11:59:40.903Z,14.45
2023-03-29T12:02:44.598Z,14.74
2023-03-29T12:05:52.193Z,15.02
2023-03-29T12:08:58.550Z,14.97
2023-03-29T12:12:16.104Z,15.24
2023-03-29T12:15:20.326Z,15.02
2023-03-29T12:18:29.713Z,15.33
2023-03-29T12:21:31.496Z,15.32
2023-03-29T12:24:32.980Z,15.48
2023-03-29T12:27:37.395Z,15.75
2023-03-29T12:30:57.617Z,15.65
2023-03-29T12:34:17.382Z,15.86
2023-03-29T12:37:31.965Z,15.74
2023-03-29T12:40:42.155Z,15.72
2023-03-29T12:43:43.644Z,15.55
2023-03-29T12:46:45.285Z,15.45
2023-03-29T12:49:47.324Z,15.39
2023-03-29T12:52:48.686Z,15.47
2023-03-29T12:56:12.497Z,15.30
2023-03-29T12:59:39.781Z,15.43
2023-03-29T13:02:41.352Z,15.58
2023-03-29T13:05:43.231Z,15.62
2023-03-29T13:08:44.606Z,15.87
2023-03-29T13:11:52.405Z,15.85
2023-03-29T13:15:01.190Z,16.08
2023-03-29T13:18:12.508Z,16.58
2023-03-29T13:21:34.968Z,16.59
2023-03-29T13:24:52.405Z,16.82
2023-03-29T13:28:05.744Z,17.38
2023-03-29T13:31:30.782Z,17.32
2023-03-29T13:34:46.414Z,16.92
2023-03-29T13:38:03.822Z,17.11
2023-03-29T13:41:07.322Z,17.33
2023-03-29T13:44:27.087Z,17.81
2023-03-29T13:47:37.936Z,18.51
2023-03-29T13:50:40.275Z,19.65
2023-03-29T13:53:46.674Z,20.31
2023-03-29T13:57:06.720Z,21.00
2023-03-29T14:00:25.398Z,19.92
2023-03-29T14:03:30.206Z,19.27
2023-03-29T14:06:32.927Z,18.86
2023-03-29T14:09:36.128Z,19.60
2023-03-29T14:12:40.377Z,20.26
2023-03-29T14:15:45.551Z,19.91
2023-03-29T14:18:51.101Z,19.09
2023-03-29T14:21:53.202Z,18.79
2023-03-29T14:24:54.773Z,18.42
2023-03-29T14:27:56.301Z,18.37
2023-03-29T14:30:57.871Z,18.40
2023-03-29T14:33:59.702Z,18.56
2023-03-29T14:37:01.061Z,18.49
2023-03-29T14:40:03.933Z,18.27
2023-03-29T14:43:06.856Z,18.15
2023-03-29T14:46:08.518Z,17.98
2023-03-29T14:49:10.370Z,17.85
2023-03-29T14:52:13.247Z,17.93
2023-03-29T14:55:14.845Z,18.17
2023-03-29T14:58:24.091Z,18.29
2023-03-29T15:01:26.698Z,18.30
2023-03-29T15:04:35.076Z,18.27
2023-03-29T15:07:37.039Z,18.23
2023-03-29T15:10:38.796Z,18.39
2023-03-29T15:13:40.785Z,18.30
2023-03-29T15:16:43.497Z,18.09
2023-03-29T15:19:45.447Z,18.22
2023-03-29T15:23:06.708Z,18.06
2023-03-29T15:26:37.515Z,17.94
2023-03-29T15:29:43.668Z,17.84
2023-03-29T15:32:45.340Z,17.53
2023-03-29T15:35:49.678Z,17.63
2023-03-29T15:38:51.550Z,17.72
2023-03-29T15:41:53.187Z,17.59
2023-03-29T15:44:56.159Z,17.64
2023-03-29T15:47:57.792Z,17.68
2023-03-29T15:51:01.999Z,17.61
2023-03-29T15:54:06.384Z,17.71
2023-03-29T15:57:10.006Z,17.73
2023-03-29T16:00:13.083Z,17.47
2023-03-29T16:03:17.912Z,17.32
2023-03-29T16:06:22.098Z,17.19
2023-03-29T16:09:23.875Z,16.98
2023-03-29T16:12:25.337Z,16.82
2023-03-29T16:15:27.233Z,16.78
2023-03-29T16:18:28.836Z,16.66
2023-03-29T16:21:30.351Z,16.51
2023-03-29T16:24:32.092Z,16.38
2023-03-29T16:27:33.638Z,16.13
2023-03-29T16:30:35.948Z,16.22
2023-03-29T16:33:37.984Z,16.12
2023-03-29T16:36:40.050Z,15.92
2023-03-29T16:39:41.764Z,15.87
2023-03-29T16:42:43.242Z,15.65
2023-03-29T16:45:44.799Z,15.52
2023-03-29T16:48:46.383Z,15.72
2023-03-29T16:51:48.280Z,15.40
2023-03-29T16:54:49.616Z,15.23
2023-03-29T16:57:51.143Z,15.06
2023-03-29T17:00:54.390Z,14.90
2023-03-29T17:03:55.908Z,14.75
2023-03-29T17:06:57.396Z,14.74
2023-03-29T17:09:59.012Z,14.44
2023-03-29T17:13:00.862Z,14.19
2023-03-29T17:16:02.592Z,14.08
2023-03-29T17:19:04.253Z,14.03
2023-03-29T17:22:05.912Z,13.86
2023-03-29T17:25:07.941Z,13.80
2023-03-29T17:28:09.614Z,13.62
2023-03-29T17:31:11.099Z,13.60
2023-03-29T17:34:13.811Z,13.39
2023-03-29T17:37:15.712Z,13.16
2023-03-29T17:40:17.946Z,13.02
2023-03-29T17:43:19.445Z,12.96
2023-03-29T17:46:22.951Z,12.78
2023-03-29T17:49:24.740Z,12.77
2023-03-29T17:52:30.049Z,12.70
2023-03-29T17:55:34.026Z,12.50
2023-03-29T17:58:35.706Z,12.42
2023-03-29T18:01:39.060Z,12.51
2023-03-29T18:04:40.969Z,12.50
2023-03-29T18:07:42.592Z,12.51
2023-03-29T18:10:44.170Z,12.52
2023-03-29T18:13:45.941Z,12.46
2023-03-29T18:16:47.570Z,12.43
2023-03-29T18:19:49.182Z,12.35
2023-03-29T18:22:50.761Z,12.41
2023-03-29T18:25:52.428Z,12.48
2023-03-29T18:28:54.245Z,12.43
2023-03-29T18:31:55.826Z,12.52
2023-03-29T18:34:57.428Z,12.40
2023-03-29T18:37:59.030Z,12.34
2023-03-29T18:41:03.618Z,12.47
2023-03-29T18:44:05.486Z,12.51
2023-03-29T18:47:09.869Z,12.54
2023-03-29T18:50:15.484Z,12.42
2023-03-29T18:53:17.375Z,12.43
2023-03-29T18:56:25.225Z,12.27
2023-03-29T18:59:26.795Z,12.30
2023-03-29T19:02:28.349Z,12.44
2023-03-29T19:05:29.944Z,12.39
2023-03-29T19:08:32.959Z,12.35
2023-03-29T19:11:36.034Z,12.27
2023-03-29T19:14:38.020Z,12.24
2023-03-29T19:17:42.245Z,12.14
2023-03-29T19:20:47.100Z,12.09
2023-03-29T19:23:53.504Z,11.93
2023-03-29T19:26:57.069Z,11.98
2023-03-29T19:29:59.875Z,11.94
2023-03-29T19:33:02.092Z,11.97
2023-03-29T19:36:04.094Z,11.95
2023-03-29T19:39:06.379Z,11.93
2023-03-29T19:42:11.371Z,11.87
2023-03-29T19:45:12.932Z,11.90
2023-03-29T19:48:22.422Z,11.86
2023-03-29T19:51:30.950Z,11.83
2023-03-29T19:54:33.531Z,11.75
2023-03-29T19:57:35.045Z,12.16
2023-03-29T20:00:38.743Z,12.07
2023-03-29T20:03:43.550Z,11.79
2023-03-29T20:06:45.529Z,11.79
2023-03-29T20:09:47.317Z,11.75
2023-03-29T20:12:49.252Z,11.81
2023-03-29T20:15:51.378Z,11.69
2023-03-29T20:18:53.969Z,11.69
2023-03-29T20:21:57.558Z,11.65
2023-03-29T20:24:59.152Z,11.71
2023-03-29T20:28:00.647Z,11.66
2023-03-29T20:31:04.126Z,11.66
2023-03-29T20:34:05.792Z,11.64
2023-03-29T20:37:07.518Z,11.63
2023-03-29T20:40:09.418Z,11.51
2023-03-29T20:43:13.061Z,11.67
2023-03-29T20:46:18.286Z,11.53
2023-03-29T20:49:26.146Z,11.63
2023-03-29T20:52:27.878Z,11.91
2023-03-29T20:55:30.400Z,12.47
2023-03-29T20:58:31.991Z,12.59
2023-03-29T21:01:35.250Z,12.54
2023-03-29T21:04:36.830Z,12.59
2023-03-29T21:07:38.782Z,12.58
2023-03-29T21:10:42.419Z,12.84
2023-03-29T21:13:43.918Z,12.82
2023-03-29T21:16:47.236Z,12.95
2023-03-29T21:19:48.972Z,13.78
2023-03-29T21:22:50.495Z,14.87
2023-03-29T21:25:51.979Z,15.13
2023-03-29T21:28:53.478Z,15.17
2023-03-29T21:31:55.314Z,15.52
2023-03-29T21:34:57.368Z,15.67
2023-03-29T21:37:59.097Z,15.52
2023-03-29T21:41:00.998Z,15.69
2023-03-29T21:44:02.399Z,15.68
2023-03-29T21:47:04.012Z,15.61
2023-03-29T21:50:05.969Z,15.80
2023-03-29T21:53:07.309Z,16.20
2023-03-29T21:56:13.936Z,16.17
2023-03-29T21:59:15.397Z,16.14
2023-03-29T22:02:16.978Z,16.10
2023-03-29T22:05:18.602Z,16.09
2023-03-29T22:08:20.076Z,15.92
2023-03-29T22:11:23.056Z,16.15
2023-03-29T22:14:24.575Z,16.52
2023-03-29T22:17:26.674Z,16.44
2023-03-29T22:20:28.300Z,16.25
2023-03-29T22:23:30.128Z,16.46
2023-03-29T22:26:32.095Z,16.50
2023-03-29T22:29:33.505Z,16.59
2023-03-29T22:32:34.988Z,16.70
2023-03-29T22:35:36.590Z,16.56
2023-03-29T22:38:38.083Z,16.43
2023-03-29T22:41:39.569Z,16.49
2023-03-29T22:44:41.160Z,16.54
2023-03-29T22:47:42.636Z,16.61
2023-03-29T22:50:46.633Z,16.33
2023-03-29T22:53:48.319Z,16.55
2023-03-29T22:56:49.835Z,16.41
2023-03-29T22:59:51.400Z,16.43
2023-03-29T23:02:52.901Z,16.08
2023-03-29T23:05:56.288Z,15.28
2023-03-29T23:08:57.788Z,14.61
2023-03-29T23:11:59.436Z,13.78
2023-03-29T23:15:00.977Z,13.48
2023-03-29T23:18:02.676Z,13.16
2023-03-29T23:21:05.867Z,12.87
2023-03-29T23:24:08.518Z,12.95
2023-03-29T23:27:10.184Z,12.77
2023-03-29T23:30:11.858Z,12.52
2023-03-29T23:33:14.428Z,12.65
2023-03-29T23:36:17.355Z,12.72
2023-03-29T23:39:18.834Z,12.78
2023-03-29T23:42:20.997Z,12.83
2023-03-29T23:45:22.377Z,12.72
2023-03-29T23:48:24.183Z,12.54
2023-03-29T23:51:28.259Z,12.48
2023-03-29T23:54:29.868Z,12.50
2023-03-29T23:57:34.062Z,12.47
